createdAt,value
2023-05-06T00:01:32.211Z,6.43
2023-05-06T00:03:59.432Z,3.22
2023-05-06T00:06:26.695Z,5.20
2023-05-06T00:08:55.202Z,5.22
2023-05-06T00:11:22.363Z,5.47
2023-05-06T00:13:49.564Z,4.97
2023-05-06T00:16:16.781Z,5.80
2023-05-06T00:18:44.030Z,8.43
2023-05-06T00:21:11.199Z,6.82
2023-05-06T00:23:38.339Z,8.57
2023-05-06T00:26:07.041Z,6.63
2023-05-06T00:28:34.226Z,5.63
2023-05-06T00:31:01.424Z,4.93
2023-05-06T00:33:28.565Z,7.45
2023-05-06T00:35:55.761Z,7.03
2023-05-06T00:38:23.135Z,7.72
2023-05-06T00:40:50.278Z,7.13
2023-05-06T00:43:18.934Z,7.53
2023-05-06T00:45:46.308Z,8.13
2023-05-06T00:48:14.525Z,6.22
2023-05-06T00:50:42.164Z,10.23
2023-05-06T00:53:10.106Z,13.27
2023-05-06T00:55:38.161Z,10.88
2023-05-06T00:58:05.807Z,8.93
2023-05-06T01:00:34.351Z,9.02
2023-05-06T01:03:01.885Z,7.28
2023-05-06T01:05:35.113Z,10.35
2023-05-06T01:08:12.408Z,10.82
2023-05-06T01:10:49.571Z,9.30
2023-05-06T01:13:21.481Z,7.18
2023-05-06T01:15:53.874Z,10.95
2023-05-06T01:18:22.373Z,8.32
2023-05-06T01:20:52.388Z,6.68
2023-05-06T01:23:21.893Z,8.95
2023-05-06T01:25:49.254Z,9.15
2023-05-06T01:28:17.500Z,6.00
2023-05-06T01:30:52.993Z,5.88
2023-05-06T01:33:32.308Z,6.43
2023-05-06T01:36:12.847Z,3.80
2023-05-06T01:38:52.552Z,6.60
2023-05-06T01:41:20.872Z,5.97
2023-05-06T01:43:49.204Z,7.97
2023-05-06T01:46:20.234Z,6.65
2023-05-06T01:48:50.147Z,6.78
2023-05-06T01:51:17.350Z,5.05
2023-05-06T01:53:45.842Z,6.45
2023-05-06T01:56:13.212Z,6.03
2023-05-06T01:58:40.389Z,48.17
2023-05-06T02:01:07.591Z,24.67
2023-05-06T02:03:34.858Z,7.63
2023-05-06T02:06:02.037Z,8.20
2023-05-06T02:08:32.067Z,7.25
2023-05-06T02:11:00.604Z,9.60
2023-05-06T02:13:28.192Z,11.18
2023-05-06T02:15:55.457Z,8.50
2023-05-06T02:18:23.563Z,8.65
2023-05-06T02:20:50.743Z,13.45
2023-05-06T02:23:17.982Z,12.13
2023-05-06T02:25:47.015Z,6.68
2023-05-06T02:28:15.558Z,6.88
2023-05-06T02:30:43.222Z,25.48
2023-05-06T02:33:10.362Z,14.18
2023-05-06T02:35:38.210Z,67.90
2023-05-06T02:38:05.444Z,44.97
2023-05-06T02:40:34.083Z,21.30
2023-05-06T02:43:01.261Z,35.20
2023-05-06T02:45:29.859Z,36.50
2023-05-06T02:47:57.093Z,16.90
2023-05-06T02:50:24.268Z,24.75
2023-05-06T02:52:51.440Z,84.03
2023-05-06T02:55:18.799Z,30.45
2023-05-06T02:57:45.981Z,9.38
2023-05-06T03:00:14.012Z,6.60
2023-05-06T03:02:42.579Z,146.63
2023-05-06T03:05:10.205Z,11.82
2023-05-06T03:07:38.191Z,21.15
2023-05-06T03:10:06.542Z,19.42
2023-05-06T03:12:36.638Z,23.02
2023-05-06T03:15:04.873Z,15.45
2023-05-06T03:17:32.369Z,16.45
2023-05-06T03:20:01.893Z,28.10
2023-05-06T03:22:29.926Z,56.00
2023-05-06T03:24:57.833Z,53.88
2023-05-06T03:27:26.693Z,56.38
2023-05-06T03:29:58.070Z,82.82
2023-05-06T03:32:26.098Z,43.58
2023-05-06T03:34:53.459Z,21.25
2023-05-06T03:37:23.152Z,21.98
2023-05-06T03:39:54.525Z,33.05
2023-05-06T03:42:25.440Z,30.43
2023-05-06T03:44:52.940Z,89.80
2023-05-06T03:47:20.306Z,50.58
2023-05-06T03:49:47.549Z,24.98
2023-05-06T03:52:15.176Z,28.67
2023-05-06T03:54:43.817Z,59.70
2023-05-06T03:57:10.983Z,60.28
2023-05-06T03:59:38.369Z,92.13
2023-05-06T04:02:06.887Z,60.13
2023-05-06T04:04:36.811Z,48.13
2023-05-06T04:07:04.108Z,41.03
2023-05-06T04:09:31.752Z,32.00
2023-05-06T04:12:02.543Z,99.85
2023-05-06T04:14:30.483Z,51.97
2023-05-06T04:16:58.340Z,211.55
2023-05-06T04:19:25.556Z,129.50
2023-05-06T04:21:52.978Z,144.38
2023-05-06T04:24:20.500Z,128.77
2023-05-06T04:26:47.765Z,59.17
2023-05-06T04:29:16.827Z,44.95
2023-05-06T04:31:54.673Z,28.63
2023-05-06T04:34:23.341Z,49.10
2023-05-06T04:36:50.561Z,176.52
2023-05-06T04:39:28.851Z,317.80
2023-05-06T04:41:57.473Z,146.35
2023-05-06T04:44:33.553Z,119.70
2023-05-06T04:47:01.675Z,99.70
2023-05-06T04:49:29.125Z,168.20
2023-05-06T04:51:56.340Z,128.52
2023-05-06T04:54:23.686Z,57.20
2023-05-06T04:56:51.170Z,187.00
2023-05-06T04:59:19.754Z,146.02
2023-05-06T05:01:49.451Z,227.45
2023-05-06T05:04:16.826Z,175.57
2023-05-06T05:06:44.039Z,93.30
2023-05-06T05:09:12.321Z,106.53
2023-05-06T05:11:42.809Z,158.57
2023-05-06T05:14:10.016Z,84.05
2023-05-06T05:16:37.963Z,195.95
2023-05-06T05:19:09.040Z,198.90
2023-05-06T05:21:36.780Z,238.20
2023-05-06T05:24:05.308Z,136.40
2023-05-06T05:26:32.482Z,176.38
2023-05-06T05:29:01.188Z,212.77
2023-05-06T05:31:29.215Z,112.95
2023-05-06T05:33:57.191Z,113.47
2023-05-06T05:36:26.100Z,73.35
2023-05-06T05:38:55.091Z,116.07
2023-05-06T05:41:24.826Z,55.47
2023-05-06T05:43:52.053Z,64.47
2023-05-06T05:46:19.374Z,73.43
2023-05-06T05:48:48.286Z,53.15
2023-05-06T05:51:15.471Z,48.40
2023-05-06T05:53:44.626Z,153.52
2023-05-06T05:56:12.598Z,95.13
2023-05-06T05:58:39.812Z,97.97
2023-05-06T06:01:07.027Z,47.67
2023-05-06T06:03:34.681Z,158.93
2023-05-06T06:06:01.988Z,142.65
2023-05-06T06:08:30.414Z,30.92
2023-05-06T06:11:00.063Z,60.00
2023-05-06T06:13:34.328Z,45.72
2023-05-06T06:16:01.825Z,51.47
2023-05-06T06:18:29.020Z,48.90
2023-05-06T06:20:56.229Z,60.08
2023-05-06T06:23:24.168Z,62.72
2023-05-06T06:25:51.499Z,27.27
2023-05-06T06:28:20.092Z,37.40
2023-05-06T06:30:47.658Z,11.25
2023-05-06T06:33:14.836Z,9.55
2023-05-06T06:35:42.004Z,12.10
2023-05-06T06:38:09.213Z,9.35
2023-05-06T06:40:36.366Z,10.15
2023-05-06T06:43:03.506Z,10.05
2023-05-06T06:45:51.627Z,9.27
2023-05-06T06:48:19.263Z,9.65
2023-05-06T06:50:46.509Z,10.55
2023-05-06T06:53:13.795Z,9.07
2023-05-06T06:55:43.218Z,8.70
2023-05-06T06:58:10.487Z,9.02
2023-05-06T07:00:37.850Z,11.25
2023-05-06T07:03:06.531Z,8.55
2023-05-06T07:05:33.886Z,9.38
2023-05-06T07:08:01.053Z,9.10
2023-05-06T07:10:28.225Z,7.88
2023-05-06T07:12:55.556Z,8.90
2023-05-06T07:15:24.217Z,7.63
2023-05-06T07:17:51.352Z,7.25
2023-05-06T07:20:20.004Z,6.85
2023-05-06T07:22:47.176Z,6.95
2023-05-06T07:25:14.380Z,6.88
2023-05-06T07:27:41.524Z,6.13
2023-05-06T07:30:09.410Z,6.57
2023-05-06T07:32:36.590Z,8.93
2023-05-06T07:35:04.404Z,10.20
2023-05-06T07:37:33.020Z,9.00
2023-05-06T07:40:00.219Z,8.10
2023-05-06T07:42:27.348Z,6.57
2023-05-06T07:44:54.506Z,6.03
2023-05-06T07:47:30.576Z,8.65
2023-05-06T07:49:58.476Z,7.22
2023-05-06T07:52:25.781Z,7.60
2023-05-06T07:54:54.377Z,7.72
2023-05-06T07:57:21.569Z,6.53
2023-05-06T07:59:49.678Z,6.05
2023-05-06T08:02:17.306Z,6.65
2023-05-06T08:04:45.176Z,6.30
2023-05-06T08:07:12.575Z,5.70
2023-05-06T08:09:39.733Z,4.95
2023-05-06T08:12:08.306Z,4.65
2023-05-06T08:14:35.546Z,6.05
2023-05-06T08:17:02.757Z,4.80
2023-05-06T08:19:29.894Z,3.60
2023-05-06T08:21:57.101Z,5.47
2023-05-06T08:24:24.315Z,4.20
2023-05-06T08:26:51.486Z,5.60
2023-05-06T08:29:20.079Z,4.90
2023-05-06T08:31:47.382Z,4.82
2023-05-06T08:34:14.637Z,6.72
2023-05-06T08:36:41.792Z,3.13
2023-05-06T08:39:09.042Z,5.85
2023-05-06T08:41:39.667Z,3.80
2023-05-06T08:44:08.242Z,3.45
2023-05-06T08:46:36.980Z,6.32
2023-05-06T08:49:04.133Z,4.20
2023-05-06T08:51:33.492Z,2.85
2023-05-06T08:54:01.636Z,4.85
2023-05-06T08:56:30.779Z,4.22
2023-05-06T08:58:58.247Z,2.95
2023-05-06T09:01:26.528Z,3.13
2023-05-06T09:03:56.772Z,3.20
2023-05-06T09:06:24.186Z,3.65
2023-05-06T09:08:51.962Z,4.97
2023-05-06T09:11:21.449Z,4.03
2023-05-06T09:13:50.032Z,2.78
2023-05-06T09:16:28.154Z,5.13
2023-05-06T09:18:57.079Z,5.78
2023-05-06T09:21:33.100Z,3.55
2023-05-06T09:24:02.456Z,4.32
2023-05-06T09:26:30.664Z,3.42
2023-05-06T09:28:58.373Z,4.32
2023-05-06T09:31:26.928Z,3.00
2023-05-06T09:33:57.654Z,4.72
2023-05-06T09:36:26.290Z,4.18
2023-05-06T09:38:53.774Z,2.92
2023-05-06T09:41:22.090Z,4.97
2023-05-06T09:43:51.560Z,4.28
2023-05-06T09:46:19.715Z,4.63
2023-05-06T09:48:49.749Z,1.65
2023-05-06T09:51:19.769Z,2.75
2023-05-06T09:53:48.048Z,3.78
2023-05-06T09:56:20.219Z,3.90
2023-05-06T09:58:51.163Z,4.20
2023-05-06T10:01:32.627Z,3.17
2023-05-06T10:04:03.731Z,3.92
2023-05-06T10:06:34.311Z,2.97
2023-05-06T10:09:02.572Z,4.15
2023-05-06T10:11:30.607Z,6.82
2023-05-06T10:13:59.563Z,3.95
2023-05-06T10:16:28.259Z,2.20
2023-05-06T10:18:56.346Z,3.55
2023-05-06T10:21:25.289Z,4.38
2023-05-06T10:24:01.829Z,3.28
2023-05-06T10:26:29.960Z,4.22
2023-05-06T10:28:59.981Z,4.55
2023-05-06T10:31:29.153Z,4.78
2023-05-06T10:34:00.794Z,5.93
2023-05-06T10:36:31.139Z,5.55
2023-05-06T10:39:00.871Z,3.95
2023-05-06T10:41:29.098Z,5.68
2023-05-06T10:43:57.347Z,3.45
2023-05-06T10:46:25.306Z,4.00
2023-05-06T10:49:17.572Z,3.45
2023-05-06T10:51:47.708Z,5.95
2023-05-06T10:54:25.005Z,3.80
2023-05-06T10:57:12.916Z,7.00
2023-05-06T10:59:45.484Z,3.45
2023-05-06T11:02:13.495Z,5.47
2023-05-06T11:04:40.797Z,4.57
2023-05-06T11:07:10.076Z,2.67
2023-05-06T11:09:57.023Z,3.17
2023-05-06T11:12:46.021Z,4.07
2023-05-06T11:15:20.985Z,2.60
2023-05-06T11:17:48.253Z,3.85
2023-05-06T11:20:20.612Z,4.63
2023-05-06T11:22:47.877Z,4.05
2023-05-06T11:25:39.779Z,3.58
2023-05-06T11:28:08.382Z,5.15
2023-05-06T11:30:37.158Z,2.85
2023-05-06T11:33:05.678Z,1.60
2023-05-06T11:35:36.504Z,2.28
2023-05-06T11:38:04.207Z,2.70
2023-05-06T11:40:33.062Z,2.45
2023-05-06T11:43:10.311Z,3.08
2023-05-06T11:45:41.492Z,3.35
2023-05-06T11:48:11.518Z,2.45
2023-05-06T11:50:38.820Z,1.40
2023-05-06T11:53:06.039Z,3.28
2023-05-06T11:55:35.328Z,2.92
2023-05-06T11:58:02.496Z,3.83
2023-05-06T12:00:29.730Z,3.05
2023-05-06T12:02:57.098Z,3.92
2023-05-06T12:05:24.444Z,4.97
2023-05-06T12:07:51.853Z,1.77
2023-05-06T12:10:19.444Z,2.40
2023-05-06T12:12:48.151Z,2.50
2023-05-06T12:15:15.670Z,2.78
2023-05-06T12:17:42.922Z,2.58
2023-05-06T12:20:11.944Z,2.00
2023-05-06T12:22:39.332Z,5.63
2023-05-06T12:25:13.940Z,1.33
2023-05-06T12:27:41.155Z,5.65
2023-05-06T12:30:11.052Z,2.60
2023-05-06T12:32:56.526Z,3.45
2023-05-06T12:35:27.660Z,2.45
2023-05-06T12:37:54.910Z,2.15
2023-05-06T12:40:22.172Z,2.55
2023-05-06T12:42:54.232Z,4.40
2023-05-06T12:45:23.800Z,1.83
2023-05-06T12:47:54.820Z,2.25
2023-05-06T12:50:32.613Z,2.50
2023-05-06T12:53:00.195Z,2.25
2023-05-06T12:55:27.392Z,2.45
2023-05-06T12:57:55.545Z,3.22
2023-05-06T13:00:25.327Z,2.85
2023-05-06T13:02:52.626Z,2.72
2023-05-06T13:05:19.916Z,2.60
2023-05-06T13:07:47.564Z,4.15
2023-05-06T13:10:15.006Z,6.95
2023-05-06T13:12:42.440Z,5.80
2023-05-06T13:15:10.425Z,3.03
2023-05-06T13:17:39.048Z,2.88
2023-05-06T13:20:07.511Z,4.75
2023-05-06T13:22:46.989Z,2.45
2023-05-06T13:25:20.885Z,2.53
2023-05-06T13:27:48.135Z,2.58
2023-05-06T13:30:15.491Z,3.13
2023-05-06T13:32:45.022Z,2.70
2023-05-06T13:35:12.430Z,3.42
2023-05-06T13:37:39.811Z,3.92
2023-05-06T13:40:08.312Z,2.58
2023-05-06T13:42:36.266Z,2.65
2023-05-06T13:45:03.651Z,4.65
2023-05-06T13:47:30.849Z,2.70
2023-05-06T13:49:59.406Z,5.10
2023-05-06T13:52:26.576Z,5.00
2023-05-06T13:54:53.783Z,5.50
2023-05-06T13:57:20.944Z,3.85
2023-05-06T13:59:48.087Z,1.90
2023-05-06T14:02:15.428Z,2.78
2023-05-06T14:04:42.685Z,2.00
2023-05-06T14:07:11.455Z,3.10
2023-05-06T14:09:38.635Z,4.25
2023-05-06T14:12:05.979Z,1.65
2023-05-06T14:14:33.144Z,3.13
2023-05-06T14:17:00.340Z,2.55
2023-05-06T14:19:27.498Z,3.08
2023-05-06T14:21:54.710Z,3.42
2023-05-06T14:24:23.239Z,2.95
2023-05-06T14:26:50.446Z,3.30
2023-05-06T14:29:17.667Z,2.00
2023-05-06T14:31:44.940Z,2.50
2023-05-06T14:34:12.192Z,1.30
2023-05-06T14:36:39.510Z,3.30
2023-05-06T14:39:06.699Z,3.78
2023-05-06T14:41:35.221Z,2.35
2023-05-06T14:44:02.364Z,2.42
2023-05-06T14:46:29.837Z,2.28
2023-05-06T14:48:57.269Z,3.75
2023-05-06T14:51:24.539Z,2.58
2023-05-06T14:53:51.690Z,3.30
2023-05-06T14:56:18.873Z,2.22
2023-05-06T14:58:47.361Z,2.83
2023-05-06T15:01:14.531Z,2.15
2023-05-06T15:03:41.736Z,2.38
2023-05-06T15:06:08.927Z,3.85
2023-05-06T15:08:36.178Z,4.72
2023-05-06T15:11:04.246Z,6.22
2023-05-06T15:13:31.630Z,2.30
2023-05-06T15:16:00.228Z,3.67
2023-05-06T15:18:27.407Z,2.10
2023-05-06T15:20:54.605Z,3.80
2023-05-06T15:23:21.849Z,3.20
2023-05-06T15:25:49.003Z,3.33
2023-05-06T15:28:16.271Z,3.25
2023-05-06T15:30:43.430Z,5.60
2023-05-06T15:33:11.977Z,2.10
2023-05-06T15:35:39.098Z,4.60
2023-05-06T15:38:06.257Z,3.00
2023-05-06T15:40:33.409Z,3.40
2023-05-06T15:43:00.708Z,72.95
2023-05-06T15:45:27.875Z,31.02
2023-05-06T15:47:55.076Z,22.73
2023-05-06T15:50:32.795Z,15.10
2023-05-06T15:53:00.951Z,5.63
2023-05-06T15:55:28.360Z,4.30
2023-05-06T15:57:56.036Z,5.07
2023-05-06T16:00:24.136Z,3.88
2023-05-06T16:02:51.461Z,4.43
2023-05-06T16:05:18.736Z,4.15
2023-05-06T16:07:47.328Z,2.88
2023-05-06T16:10:14.522Z,3.35
2023-05-06T16:12:41.747Z,3.03
2023-05-06T16:15:09.722Z,3.10
2023-05-06T16:17:36.877Z,3.28
2023-05-06T16:20:04.917Z,1.30
2023-05-06T16:22:32.112Z,2.00
2023-05-06T16:25:00.742Z,2.42
2023-05-06T16:27:27.893Z,2.72
2023-05-06T16:29:55.887Z,1.88
2023-05-06T16:32:23.553Z,1.30
2023-05-06T16:34:50.819Z,1.25
2023-05-06T16:37:18.031Z,5.70
2023-05-06T16:39:45.163Z,1.50
2023-05-06T16:42:13.699Z,2.38
2023-05-06T16:44:40.899Z,2.00
2023-05-06T16:47:08.300Z,2.50
2023-05-06T16:49:35.502Z,2.33
2023-05-06T16:52:02.741Z,1.85
2023-05-06T16:54:30.028Z,2.58
2023-05-06T16:56:57.186Z,1.90
2023-05-06T16:59:25.711Z,2.38
2023-05-06T17:01:52.859Z,3.40
2023-05-06T17:04:20.079Z,4.93
2023-05-06T17:06:47.454Z,3.42
2023-05-06T17:09:14.613Z,3.22
2023-05-06T17:11:41.783Z,4.63
2023-05-06T17:14:09.591Z,2.85
2023-05-06T17:16:38.282Z,2.80
2023-05-06T17:19:05.438Z,2.85
2023-05-06T17:21:32.625Z,5.60
2023-05-06T17:23:59.879Z,1.48
2023-05-06T17:26:27.041Z,5.30
2023-05-06T17:28:54.302Z,5.80
2023-05-06T17:31:21.576Z,4.72
2023-05-06T17:33:50.239Z,2.42
2023-05-06T17:36:18.121Z,4.03
2023-05-06T17:38:45.255Z,4.70
2023-05-06T17:41:12.467Z,5.47
2023-05-06T17:43:39.765Z,5.50
2023-05-06T17:46:07.020Z,6.35
2023-05-06T17:48:34.185Z,3.03
2023-05-06T17:51:02.816Z,4.07
2023-05-06T17:53:30.037Z,2.17
2023-05-06T17:55:57.172Z,6.80
2023-05-06T17:58:24.477Z,1.27
2023-05-06T18:00:51.619Z,2.13
2023-05-06T18:03:19.008Z,2.55
2023-05-06T18:05:46.258Z,1.40
2023-05-06T18:08:14.767Z,2.55
2023-05-06T18:10:41.938Z,2.30
2023-05-06T18:13:09.231Z,1.65
2023-05-06T18:15:36.641Z,2.35
2023-05-06T18:18:04.092Z,2.75
2023-05-06T18:20:32.296Z,4.13
2023-05-06T18:22:59.479Z,2.70
2023-05-06T18:25:28.046Z,2.65
2023-05-06T18:27:55.189Z,3.97
2023-05-06T18:30:22.325Z,3.17
2023-05-06T18:32:51.363Z,2.63
2023-05-06T18:35:19.665Z,2.65
2023-05-06T18:37:46.865Z,3.20
2023-05-06T18:40:14.609Z,4.63
2023-05-06T18:42:43.128Z,2.00
2023-05-06T18:45:11.487Z,5.45
2023-05-06T18:47:38.976Z,4.22
2023-05-06T18:50:07.554Z,2.28
2023-05-06T18:52:34.831Z,4.18
2023-05-06T18:55:01.989Z,3.65
2023-05-06T18:57:29.211Z,3.80
2023-05-06T18:59:57.717Z,3.63
2023-05-06T19:02:25.007Z,3.33
2023-05-06T19:04:52.201Z,4.22
2023-05-06T19:07:19.388Z,4.55
2023-05-06T19:09:46.562Z,3.85
2023-05-06T19:12:13.760Z,4.00
2023-05-06T19:14:40.908Z,3.55
2023-05-06T19:17:09.613Z,5.15
2023-05-06T19:19:36.802Z,5.28
2023-05-06T19:22:03.978Z,5.32
2023-05-06T19:24:31.143Z,3.47
2023-05-06T19:26:58.328Z,6.38
2023-05-06T19:29:25.455Z,3.42
2023-05-06T19:31:52.624Z,6.00
2023-05-06T19:34:21.168Z,1.98
2023-05-06T19:36:48.330Z,3.38
2023-05-06T19:39:15.534Z,2.00
2023-05-06T19:41:42.668Z,2.92
2023-05-06T19:44:09.821Z,2.55
2023-05-06T19:46:37.036Z,2.67
2023-05-06T19:49:04.294Z,3.00
2023-05-06T19:51:32.829Z,4.90
2023-05-06T19:53:59.986Z,2.80
2023-05-06T19:56:27.120Z,4.57
2023-05-06T19:58:54.284Z,3.97
2023-05-06T20:01:21.465Z,1.85
2023-05-06T20:03:48.850Z,3.92
2023-05-06T20:06:16.098Z,2.88
2023-05-06T20:08:44.603Z,1.67
2023-05-06T20:11:11.831Z,2.03
2023-05-06T20:13:38.993Z,2.92
2023-05-06T20:16:06.398Z,1.80
2023-05-06T20:18:33.673Z,3.05
2023-05-06T20:21:00.801Z,1.85
2023-05-06T20:23:27.983Z,3.45
2023-05-06T20:25:56.720Z,1.38
2023-05-06T20:28:23.868Z,2.45
2023-05-06T20:30:51.283Z,1.88
2023-05-06T20:33:18.491Z,2.20
2023-05-06T20:35:45.697Z,4.03
2023-05-06T20:38:12.877Z,1.63
2023-05-06T20:40:40.042Z,2.92
2023-05-06T20:43:08.615Z,2.47
2023-05-06T20:45:36.002Z,2.30
2023-05-06T20:48:03.236Z,6.82
2023-05-06T20:50:30.444Z,4.18
2023-05-06T20:52:57.874Z,3.05
2023-05-06T20:55:25.067Z,2.95
2023-05-06T20:57:52.271Z,2.55
2023-05-06T21:00:21.589Z,3.00
2023-05-06T21:02:48.853Z,3.03
2023-05-06T21:05:16.112Z,2.28
2023-05-06T21:07:43.347Z,4.43
2023-05-06T21:10:11.274Z,2.80
2023-05-06T21:12:38.625Z,2.08
2023-05-06T21:15:07.057Z,4.18
2023-05-06T21:17:35.821Z,5.30
2023-05-06T21:20:04.297Z,3.80
2023-05-06T21:22:33.409Z,3.17
2023-05-06T21:25:00.540Z,2.67
2023-05-06T21:27:27.757Z,4.22
2023-05-06T21:29:54.942Z,3.83
2023-05-06T21:32:22.120Z,5.85
2023-05-06T21:34:50.650Z,2.13
2023-05-06T21:37:17.788Z,3.83
2023-05-06T21:39:44.910Z,3.50
2023-05-06T21:42:12.117Z,3.67
2023-05-06T21:44:39.267Z,2.20
2023-05-06T21:47:06.429Z,2.90
2023-05-06T21:49:33.602Z,2.28
2023-05-06T21:52:02.131Z,1.58
2023-05-06T21:54:29.305Z,4.75
2023-05-06T21:56:56.440Z,2.08
2023-05-06T21:59:23.573Z,2.88
2023-05-06T22:01:50.774Z,1.80
2023-05-06T22:04:17.954Z,2.25
2023-05-06T22:06:45.162Z,2.22
2023-05-06T22:09:13.669Z,1.60
2023-05-06T22:11:40.838Z,1.58
2023-05-06T22:14:08.059Z,5.10
2023-05-06T22:16:35.710Z,2.05
2023-05-06T22:19:03.182Z,2.40
2023-05-06T22:21:30.543Z,4.20
2023-05-06T22:23:57.730Z,2.55
2023-05-06T22:26:26.734Z,2.50
2023-05-06T22:28:54.036Z,2.35
2023-05-06T22:31:21.300Z,3.55
2023-05-06T22:33:48.531Z,2.90
2023-05-06T22:36:15.710Z,3.25
2023-05-06T22:38:42.915Z,3.08
2023-05-06T22:41:10.123Z,2.33
2023-05-06T22:43:38.748Z,3.78
2023-05-06T22:46:05.971Z,2.50
2023-05-06T22:48:33.156Z,2.83
2023-05-06T22:51:00.363Z,2.95
2023-05-06T22:53:27.533Z,7.35
2023-05-06T22:55:54.757Z,3.38
2023-05-06T22:58:21.954Z,4.57
2023-05-06T23:00:50.506Z,3.10
2023-05-06T23:03:17.711Z,2.55
2023-05-06T23:05:44.965Z,4.15
2023-05-06T23:08:12.136Z,2.42
2023-05-06T23:10:39.371Z,2.05
2023-05-06T23:13:06.764Z,3.28
2023-05-06T23:15:34.014Z,2.92
2023-05-06T23:18:02.578Z,3.95
2023-05-06T23:20:29.911Z,3.65
2023-05-06T23:22:57.094Z,3.17
2023-05-06T23:25:24.254Z,5.18
2023-05-06T23:27:51.408Z,3.28
2023-05-06T23:30:18.621Z,5.20
2023-05-06T23:32:45.837Z,3.17
2023-05-06T23:35:14.551Z,3.00
2023-05-06T23:37:41.994Z,2.63
2023-05-06T23:40:09.887Z,5.75
2023-05-06T23:42:37.178Z,3.55
2023-05-06T23:45:05.058Z,2.95
2023-05-06T23:47:32.367Z,3.80
2023-05-06T23:49:59.689Z,3.10
2023-05-06T23:52:28.426Z,2.60
2023-05-06T23:54:55.580Z,3.78
2023-05-06T23:57:22.738Z,4.40
2023-05-06T23:59:49.920Z,2.65
